^^
Your Local Weather - Clay, NY Station Historical Data
Daily Summary for February 17, 2018 Units:  English    Metric   Both
« Previous Day
Next Day »
Daily Weekly Monthly Yearly Custom
  High: Low: Average:
Temperature: 35.2 °F 18.3 °F 27.7 °F
Dew Point: 26.7 °F 13.8 °F 18.1 °F
Humidity: 89% 43% 68%
Wind Speed: 8.0mph 0.0mph 1.8mph
Wind Gust: 12.0mph - -
Wind- - SSE
Pressure: 30.34 in 29.94 in -
Precipitation: 0.00 in    
Historical Graphs
 
 
Tabular Data for February 17, 2018
Time Temperature Dew Point Pressure Wind Wind Speed Wind Gust Humidity Rainfall Rate (Hourly) solar
00:02 23.6 °F 14.9 °F 30.24 in WNW 1.0 mph 2.0 mph 69% 0.00 in 0 W/m2
00:08 23.7 °F 15.0 °F 30.24 in WNW 2.0 mph 5.0 mph 69% 0.00 in 0 W/m2
00:14 23.6 °F 15.2 °F 30.24 in WNW 2.0 mph 2.0 mph 70% 0.00 in 0 W/m2
00:20 23.5 °F 15.1 °F 30.24 in WNW 1.0 mph 1.0 mph 70% 0.00 in 0 W/m2
00:26 23.3 °F 15.0 °F 30.24 in WNW 1.0 mph 1.0 mph 70% 0.00 in 0 W/m2
00:32 23.2 °F 15.2 °F 30.25 in Calm   2.0 mph 71% 0.00 in 0 W/m2
00:38 23.2 °F 15.2 °F 30.25 in Calm   2.0 mph 71% 0.00 in 0 W/m2
00:44 23.2 °F 15.2 °F 30.25 in Calm     71% 0.00 in 0 W/m2
00:50 23.2 °F 15.2 °F 30.26 in Calm     71% 0.00 in 0 W/m2
00:56 23.0 °F 15.3 °F 30.26 in Calm     72% 0.00 in 0 W/m2
01:02 22.9 °F 15.2 °F 30.26 in Calm     72% 0.00 in 0 W/m2
01:08 23.0 °F 15.3 °F 30.26 in Calm     72% 0.00 in 0 W/m2
01:14 23.2 °F 15.8 °F 30.26 in Calm     73% 0.00 in 0 W/m2
01:20 23.3 °F 15.9 °F 30.27 in Calm     73% 0.00 in 0 W/m2
01:26 23.5 °F 15.8 °F 30.27 in Calm     72% 0.00 in 0 W/m2
01:32 23.4 °F 15.7 °F 30.27 in Calm     72% 0.00 in 0 W/m2
01:38 23.3 °F 15.9 °F 30.26 in Calm     73% 0.00 in 0 W/m2
01:44 23.2 °F 15.8 °F 30.26 in Calm     73% 0.00 in 0 W/m2
01:50 23.2 °F 15.8 °F 30.27 in Calm     73% 0.00 in 0 W/m2
01:56 23.1 °F 16.0 °F 30.27 in Calm     74% 0.00 in 0 W/m2
02:02 23.1 °F 16.0 °F 30.27 in Calm     74% 0.00 in 0 W/m2
02:08 23.0 °F 15.9 °F 30.27 in Calm     74% 0.00 in 0 W/m2
02:14 23.0 °F 15.9 °F 30.27 in Calm     74% 0.00 in 0 W/m2
02:20 23.0 °F 15.9 °F 30.27 in Calm     74% 0.00 in 0 W/m2
02:26 23.0 °F 15.9 °F 30.27 in Calm     74% 0.00 in 0 W/m2
02:32 22.8 °F 16.1 °F 30.27 in Calm     75% 0.00 in 0 W/m2
02:38 22.4 °F 15.7 °F 30.27 in Calm     75% 0.00 in 0 W/m2
02:44 22.2 °F 15.5 °F 30.27 in Calm     75% 0.00 in 0 W/m2
02:50 21.9 °F 15.5 °F 30.27 in Calm     76% 0.00 in 0 W/m2
02:56 21.6 °F 15.2 °F 30.27 in Calm     76% 0.00 in 0 W/m2
03:02 21.3 °F 14.9 °F 30.28 in Calm     76% 0.00 in 0 W/m2
03:08 21.0 °F 14.9 °F 30.28 in Calm     77% 0.00 in 0 W/m2
03:14 20.8 °F 15.0 °F 30.28 in Calm     78% 0.00 in 0 W/m2
03:20 20.5 °F 15.0 °F 30.28 in Calm     79% 0.00 in 0 W/m2
03:26 20.2 °F 14.7 °F 30.28 in Calm     79% 0.00 in 0 W/m2
03:32 20.0 °F 14.8 °F 30.29 in Calm     80% 0.00 in 0 W/m2
03:38 19.6 °F 14.4 °F 30.29 in Calm     80% 0.00 in 0 W/m2
03:44 19.4 °F 14.5 °F 30.29 in Calm     81% 0.00 in 0 W/m2
03:50 19.2 °F 14.6 °F 30.30 in Calm     82% 0.00 in 0 W/m2
03:56 19.0 °F 14.4 °F 30.30 in Calm     82% 0.00 in 0 W/m2
04:02 18.8 °F 14.5 °F 30.31 in Calm     83% 0.00 in 0 W/m2
04:08 18.7 °F 14.4 °F 30.31 in Calm     83% 0.00 in 0 W/m2
04:14 18.6 °F 14.3 °F 30.31 in Calm     83% 0.00 in 0 W/m2
04:20 18.4 °F 14.4 °F 30.31 in Calm     84% 0.00 in 0 W/m2
04:26 18.5 °F 14.5 °F 30.31 in Calm     84% 0.00 in 0 W/m2
04:32 18.4 °F 14.4 °F 30.31 in Calm     84% 0.00 in 0 W/m2
04:38 18.3 °F 14.5 °F 30.31 in Calm     85% 0.00 in 0 W/m2
04:44 18.3 °F 14.5 °F 30.31 in Calm     85% 0.00 in 0 W/m2
04:50 18.5 °F 14.7 °F 30.32 in Calm     85% 0.00 in 0 W/m2
04:56 18.8 °F 15.3 °F 30.32 in Calm     86% 0.00 in 0 W/m2
05:02 19.5 °F 16.0 °F 30.32 in Calm   2.0 mph 86% 0.00 in 0 W/m2
05:14 20.9 °F 17.4 °F 30.32 in Calm     86% 0.00 in 0 W/m2
05:20 21.2 °F 17.7 °F 30.32 in Calm     86% 0.00 in 0 W/m2
05:26 21.5 °F 17.7 °F 30.32 in Calm     85% 0.00 in 0 W/m2
05:32 21.8 °F 18.0 °F 30.32 in Calm   1.0 mph 85% 0.00 in 0 W/m2
05:38 22.2 °F 18.1 °F 30.32 in SSW 1.0 mph 1.0 mph 84% 0.00 in 0 W/m2
05:44 22.4 °F 18.0 °F 30.33 in SSW 1.0 mph 3.0 mph 83% 0.00 in 0 W/m2
05:50 22.6 °F 17.6 °F 30.33 in SSW 1.0 mph 1.0 mph 81% 0.00 in 0 W/m2
05:56 22.7 °F 17.7 °F 30.32 in Calm   1.0 mph 81% 0.00 in 0 W/m2
06:02 22.8 °F 17.6 °F 30.33 in Calm   1.0 mph 80% 0.00 in 0 W/m2
06:08 22.9 °F 17.4 °F 30.33 in SSW 1.0 mph 3.0 mph 79% 0.00 in 0 W/m2
06:14 22.9 °F 17.4 °F 30.33 in SSW 1.0 mph 3.0 mph 79% 0.00 in 0 W/m2
06:20 22.9 °F 17.4 °F 30.32 in SSW 1.0 mph 1.0 mph 79% 0.00 in 0 W/m2
06:26 22.8 °F 17.3 °F 30.33 in Calm   1.0 mph 79% 0.00 in 0 W/m2
06:32 22.7 °F 17.2 °F 30.33 in Calm     79% 0.00 in 0 W/m2
06:38 22.6 °F 17.1 °F 30.33 in Calm     79% 0.00 in 0 W/m2
06:44 22.5 °F 17.0 °F 30.33 in Calm     79% 0.00 in 0 W/m2
06:50 22.3 °F 16.8 °F 30.34 in Calm     79% 0.00 in 0 W/m2
06:56 22.2 °F 17.0 °F 30.33 in Calm     80% 0.00 in 0 W/m2
07:02 21.8 °F 16.6 °F 30.33 in Calm     80% 0.00 in 5 W/m2
07:08 21.4 °F 16.2 °F 30.34 in Calm     80% 0.00 in 7 W/m2
07:14 21.2 °F 16.3 °F 30.34 in Calm     81% 0.00 in 11 W/m2
07:20 20.8 °F 15.9 °F 30.34 in Calm     81% 0.00 in 14 W/m2
07:26 20.5 °F 15.9 °F 30.34 in Calm     82% 0.00 in 18 W/m2
07:32 20.3 °F 15.7 °F 30.34 in Calm     82% 0.00 in 21 W/m2
07:38 20.2 °F 15.9 °F 30.34 in Calm     83% 0.00 in 26 W/m2
07:44 20.2 °F 15.9 °F 30.34 in Calm     83% 0.00 in 42 W/m2
07:50 20.3 °F 16.0 °F 30.34 in Calm     83% 0.00 in 44 W/m2
07:56 20.8 °F 16.7 °F 30.34 in Calm   2.0 mph 84% 0.00 in 42 W/m2
08:02 21.8 °F 17.7 °F 30.34 in SSW 1.0 mph 1.0 mph 84% 0.00 in 102 W/m2
08:08 22.6 °F 18.2 °F 30.34 in SSW 1.0 mph 1.0 mph 83% 0.00 in 202 W/m2
08:14 23.4 °F 18.7 °F 30.34 in SE 1.0 mph 3.0 mph 82% 0.00 in 192 W/m2
08:20 24.2 °F 18.9 °F 30.33 in SE 2.0 mph 2.0 mph 80% 0.00 in 151 W/m2
08:26 24.7 °F 18.8 °F 30.33 in SSE 2.0 mph 3.0 mph 78% 0.00 in 190 W/m2
08:32 25.1 °F 18.6 °F 30.32 in SSE 3.0 mph 3.0 mph 76% 0.00 in 214 W/m2
08:38 25.4 °F 18.6 °F 30.32 in South 2.0 mph 4.0 mph 75% 0.00 in 167 W/m2
08:44 25.6 °F 18.5 °F 30.32 in South 2.0 mph 5.0 mph 74% 0.00 in 220 W/m2
08:50 25.7 °F 17.9 °F 30.32 in SW 3.0 mph 4.0 mph 72% 0.00 in 225 W/m2
08:56 25.6 °F 17.5 °F 30.31 in SSE 3.0 mph 4.0 mph 71% 0.00 in 260 W/m2
09:02 25.8 °F 17.7 °F 30.31 in South 3.0 mph 6.0 mph 71% 0.00 in 236 W/m2
09:08 26.0 °F 17.9 °F 30.31 in South 3.0 mph 6.0 mph 71% 0.00 in 241 W/m2
09:14 26.2 °F 17.7 °F 30.31 in SSE 3.0 mph 4.0 mph 70% 0.00 in 288 W/m2
09:20 26.6 °F 17.8 °F 30.31 in SW 3.0 mph 3.0 mph 69% 0.00 in 264 W/m2
09:26 26.7 °F 17.6 °F 30.31 in South 3.0 mph 4.0 mph 68% 0.00 in 279 W/m2
09:32 26.8 °F 17.6 °F 30.31 in SSW 3.0 mph 5.0 mph 68% 0.00 in 295 W/m2
09:38 26.9 °F 17.0 °F 30.31 in SE 2.0 mph 5.0 mph 66% 0.00 in 265 W/m2
09:44 26.8 °F 17.3 °F 30.31 in South 3.0 mph 7.0 mph 67% 0.00 in 329 W/m2
09:50 27.3 °F 17.1 °F 30.31 in SW 3.0 mph 3.0 mph 65% 0.00 in 385 W/m2
09:56 27.3 °F 16.4 °F 30.30 in South 3.0 mph 4.0 mph 63% 0.00 in 424 W/m2
10:02 27.7 °F 16.7 °F 30.29 in SSE 4.0 mph 5.0 mph 63% 0.00 in 475 W/m2
10:08 28.1 °F 17.5 °F 30.29 in SSE 3.0 mph 5.0 mph 64% 0.00 in 431 W/m2
10:14 27.8 °F 16.1 °F 30.29 in South 4.0 mph 5.0 mph 61% 0.00 in 362 W/m2
10:20 27.9 °F 16.9 °F 30.29 in SE 4.0 mph 4.0 mph 63% 0.00 in 355 W/m2
10:26 28.1 °F 16.4 °F 30.29 in South 3.0 mph 4.0 mph 61% 0.00 in 438 W/m2
10:32 28.1 °F 16.7 °F 30.29 in SSE 4.0 mph 6.0 mph 62% 0.00 in 434 W/m2
10:38 28.2 °F 16.8 °F 30.29 in ESE 5.0 mph 6.0 mph 62% 0.00 in 422 W/m2
10:44 28.3 °F 16.6 °F 30.28 in SSE 5.0 mph 5.0 mph 61% 0.00 in 406 W/m2
10:50 28.8 °F 16.6 °F 30.28 in ENE 4.0 mph 8.0 mph 60% 0.00 in 425 W/m2
10:56 29.3 °F 17.5 °F 30.28 in SSE 4.0 mph 8.0 mph 61% 0.00 in 468 W/m2
11:02 29.4 °F 17.2 °F 30.27 in SSE 3.0 mph 4.0 mph 60% 0.00 in 422 W/m2
11:08 29.4 °F 16.8 °F 30.27 in ESE 3.0 mph 5.0 mph 59% 0.00 in 380 W/m2
11:14 29.2 °F 17.8 °F 30.27 in SSE 3.0 mph 5.0 mph 62% 0.00 in 323 W/m2
11:20 29.3 °F 17.1 °F 30.27 in South 4.0 mph 4.0 mph 60% 0.00 in 346 W/m2
11:26 29.5 °F 17.7 °F 30.26 in SSE 4.0 mph 5.0 mph 61% 0.00 in 443 W/m2
11:32 29.8 °F 17.2 °F 30.25 in SSE 4.0 mph 4.0 mph 59% 0.00 in 411 W/m2
11:38 30.4 °F 18.5 °F 30.25 in ESE 4.0 mph 5.0 mph 61% 0.00 in 411 W/m2
11:44 30.0 °F 17.0 °F 30.25 in SE 4.0 mph 4.0 mph 58% 0.00 in 350 W/m2
11:50 30.5 °F 18.3 °F 30.24 in SW 3.0 mph 3.0 mph 60% 0.00 in 338 W/m2
11:56 30.2 °F 17.6 °F 30.24 in South 3.0 mph 5.0 mph 59% 0.00 in 315 W/m2
12:02 30.4 °F 17.8 °F 30.23 in SSE 2.0 mph 2.0 mph 59% 0.00 in 320 W/m2
12:08 30.9 °F 18.6 °F 30.22 in SE 1.0 mph 3.0 mph 60% 0.00 in 330 W/m2
12:14 30.7 °F 17.7 °F 30.21 in SE 2.0 mph 3.0 mph 58% 0.00 in 311 W/m2
12:20 31.0 °F 17.5 °F 30.21 in ENE 2.0 mph 2.0 mph 57% 0.00 in 327 W/m2
12:26 31.4 °F 17.5 °F 30.20 in SE 2.0 mph 3.0 mph 56% 0.00 in 283 W/m2
12:32 31.2 °F 17.3 °F 30.20 in East 2.0 mph 2.0 mph 56% 0.00 in 281 W/m2
12:38 31.5 °F 18.4 °F 30.19 in ESE 2.0 mph 2.0 mph 58% 0.00 in 265 W/m2
12:44 31.7 °F 17.8 °F 30.18 in East 3.0 mph 3.0 mph 56% 0.00 in 243 W/m2
12:50 31.6 °F 17.3 °F 30.19 in SE 3.0 mph 3.0 mph 55% 0.00 in 232 W/m2
12:56 31.8 °F 17.9 °F 30.19 in South 2.0 mph 6.0 mph 56% 0.00 in 221 W/m2
13:02 32.2 °F 17.4 °F 30.18 in SSE 2.0 mph 4.0 mph 54% 0.00 in 216 W/m2
13:08 32.2 °F 16.5 °F 30.19 in SE 2.0 mph 4.0 mph 52% 0.00 in 197 W/m2
13:14 32.2 °F 17.0 °F 30.18 in SE 2.0 mph 3.0 mph 53% 0.00 in 192 W/m2
13:20 31.4 °F 18.3 °F 30.17 in ENE 3.0 mph 3.0 mph 58% 0.00 in 213 W/m2
13:26 30.8 °F 18.9 °F 30.17 in North 3.0 mph 4.0 mph 61% 0.00 in 220 W/m2
13:32 31.0 °F 19.1 °F 30.15 in NNE 3.0 mph 3.0 mph 61% 0.00 in 213 W/m2
13:38 31.2 °F 20.1 °F 30.14 in ENE 2.0 mph 3.0 mph 63% 0.00 in 237 W/m2
13:44 31.2 °F 19.3 °F 30.14 in ENE 2.0 mph 5.0 mph 61% 0.00 in 230 W/m2
13:50 31.6 °F 18.9 °F 30.13 in ENE 2.0 mph 3.0 mph 59% 0.00 in 214 W/m2
13:56 31.7 °F 19.4 °F 30.13 in NE 2.0 mph 3.0 mph 60% 0.00 in 209 W/m2
14:02 31.8 °F 18.7 °F 30.12 in ENE 3.0 mph 3.0 mph 58% 0.00 in 216 W/m2
14:08 32.1 °F 19.4 °F 30.11 in ENE 2.0 mph 3.0 mph 59% 0.00 in 218 W/m2
14:14 32.4 °F 18.4 °F 30.11 in East 2.0 mph 3.0 mph 56% 0.00 in 202 W/m2
14:20 33.0 °F 16.8 °F 30.11 in ESE 2.0 mph 2.0 mph 51% 0.00 in 197 W/m2
14:26 33.7 °F 15.6 °F 30.11 in SSE 3.0 mph 4.0 mph 47% 0.00 in 176 W/m2
14:32 33.9 °F 14.8 °F 30.10 in South 3.0 mph 4.0 mph 45% 0.00 in 156 W/m2
14:38 34.0 °F 13.8 °F 30.10 in South 4.0 mph 4.0 mph 43% 0.00 in 141 W/m2
14:44 34.0 °F 14.3 °F 30.09 in SSE 5.0 mph 7.0 mph 44% 0.00 in 137 W/m2
16:09 34.3 °F 15.1 °F 30.06 in SSE 1.0 mph 1.0 mph 45% 0.00 in 42 W/m2
16:15 34.4 °F 14.7 °F 30.06 in SSE 1.0 mph 3.0 mph 44% 0.00 in 39 W/m2
16:22 34.5 °F 15.3 °F 30.06 in ESE 2.0 mph 3.0 mph 45% 0.00 in 35 W/m2
16:28 34.8 °F 15.6 °F 30.06 in SSE 3.0 mph 4.0 mph 45% 0.00 in 30 W/m2
16:33 34.9 °F 15.2 °F 30.06 in SSE 4.0 mph 6.0 mph 44% 0.00 in 28 W/m2
16:39 35.0 °F 15.3 °F 30.06 in South 5.0 mph 5.0 mph 44% 0.00 in 25 W/m2
16:45 35.1 °F 15.3 °F 30.06 in SSW 5.0 mph 5.0 mph 44% 0.00 in 21 W/m2
16:52 35.2 °F 15.4 °F 30.05 in South 6.0 mph 8.0 mph 44% 0.00 in 18 W/m2
16:58 35.2 °F 15.4 °F 30.06 in South 6.0 mph 8.0 mph 44% 0.00 in 14 W/m2
17:03 35.0 °F 16.3 °F 30.06 in South 4.0 mph 5.0 mph 46% 0.00 in 11 W/m2
17:09 35.0 °F 16.3 °F 30.05 in South 4.0 mph 4.0 mph 46% 0.00 in 9 W/m2
17:15 34.9 °F 16.2 °F 30.05 in South 4.0 mph 5.0 mph 46% 0.00 in 5 W/m2
17:22 34.8 °F 16.6 °F 30.06 in South 3.0 mph 3.0 mph 47% 0.00 in 0 W/m2
17:28 34.9 °F 16.2 °F 30.06 in SW 4.0 mph 6.0 mph 46% 0.00 in 0 W/m2
17:33 34.9 °F 16.7 °F 30.05 in SSW 4.0 mph 4.0 mph 47% 0.00 in 0 W/m2
17:39 34.8 °F 16.6 °F 30.05 in SSW 3.0 mph 3.0 mph 47% 0.00 in 0 W/m2
17:45 34.9 °F 16.7 °F 30.05 in South 3.0 mph 5.0 mph 47% 0.00 in 0 W/m2
17:51 34.8 °F 17.1 °F 30.05 in SSW 3.0 mph 4.0 mph 48% 0.00 in 0 W/m2
17:58 34.8 °F 16.6 °F 30.05 in South 4.0 mph 10.0 mph 47% 0.00 in 0 W/m2
18:03 34.8 °F 17.6 °F 30.04 in South 4.0 mph 6.0 mph 49% 0.00 in 0 W/m2
18:09 34.8 °F 17.1 °F 30.04 in South 4.0 mph 4.0 mph 48% 0.00 in 0 W/m2
18:15 34.7 °F 17.5 °F 30.03 in South 4.0 mph 5.0 mph 49% 0.00 in 0 W/m2
18:22 34.6 °F 17.4 °F 30.03 in South 4.0 mph 6.0 mph 49% 0.00 in 0 W/m2
18:28 34.6 °F 17.4 °F 30.03 in SSW 4.0 mph 6.0 mph 49% 0.00 in 0 W/m2
18:33 34.6 °F 17.8 °F 30.03 in SSW 3.0 mph 4.0 mph 50% 0.00 in 0 W/m2
18:39 34.5 °F 17.3 °F 30.02 in South 3.0 mph 3.0 mph 49% 0.00 in 0 W/m2
18:45 34.4 °F 17.2 °F 30.01 in SSW 3.0 mph 4.0 mph 49% 0.00 in 0 W/m2
18:52 34.3 °F 17.6 °F 30.01 in South 2.0 mph 2.0 mph 50% 0.00 in 0 W/m2
18:58 34.2 °F 17.9 °F 30.01 in South 2.0 mph 2.0 mph 51% 0.00 in 0 W/m2
19:03 34.1 °F 18.3 °F 30.00 in South 2.0 mph 2.0 mph 52% 0.00 in 0 W/m2
19:09 34.0 °F 18.2 °F 30.00 in South 1.0 mph 1.0 mph 52% 0.00 in 0 W/m2
19:15 34.0 °F 17.7 °F 30.01 in South 1.0 mph 3.0 mph 51% 0.00 in 0 W/m2
19:22 34.0 °F 17.7 °F 30.01 in South 2.0 mph 3.0 mph 51% 0.00 in 0 W/m2
19:28 34.0 °F 17.7 °F 30.00 in South 2.0 mph 3.0 mph 51% 0.00 in 0 W/m2
19:33 34.0 °F 17.7 °F 30.00 in SSE 3.0 mph 5.0 mph 51% 0.00 in 0 W/m2
19:39 34.1 °F 18.3 °F 30.00 in South 4.0 mph 4.0 mph 52% 0.00 in 0 W/m2
19:45 34.1 °F 18.3 °F 30.00 in South 4.0 mph 6.0 mph 52% 0.00 in 0 W/m2
19:51 34.1 °F 18.7 °F 30.00 in SSE 4.0 mph 7.0 mph 53% 0.00 in 0 W/m2
19:58 33.9 °F 19.4 °F 30.00 in SSE 6.0 mph 9.0 mph 55% 0.00 in 0 W/m2
20:03 33.7 °F 20.5 °F 30.00 in SW 8.0 mph 12.0 mph 58% 0.00 in 0 W/m2
20:09 33.5 °F 20.7 °F 30.01 in South 7.0 mph 7.0 mph 59% 0.00 in 0 W/m2
20:15 33.2 °F 21.2 °F 30.01 in SSE 7.0 mph 8.0 mph 61% 0.00 in 0 W/m2
20:22 33.0 °F 21.4 °F 30.01 in South 6.0 mph 7.0 mph 62% 0.00 in 0 W/m2
20:28 32.8 °F 22.0 °F 30.01 in SW 4.0 mph 7.0 mph 64% 0.00 in 0 W/m2
20:33 32.7 °F 22.2 °F 30.01 in SSW 5.0 mph 5.0 mph 65% 0.00 in 0 W/m2
20:39 32.5 °F 22.8 °F 30.01 in SSW 4.0 mph 5.0 mph 67% 0.00 in 0 W/m2
20:45 32.3 °F 22.9 °F 30.01 in South 5.0 mph 5.0 mph 68% 0.00 in 0 W/m2
20:52 32.1 °F 23.1 °F 30.00 in SSW 5.0 mph 8.0 mph 69% 0.00 in 0 W/m2
20:58 32.1 °F 23.4 °F 30.00 in SSW 5.0 mph 8.0 mph 70% 0.00 in 0 W/m2
21:03 31.9 °F 23.6 °F 30.00 in SW 4.0 mph 9.0 mph 71% 0.00 in 0 W/m2
21:09 31.6 °F 23.9 °F 30.00 in South 4.0 mph 6.0 mph 73% 0.00 in 0 W/m2
21:15 31.3 °F 24.0 °F 30.00 in SSW 3.0 mph 6.0 mph 74% 0.00 in 0 W/m2
21:21 31.1 °F 24.4 °F 30.00 in SW 3.0 mph 3.0 mph 76% 0.00 in 0 W/m2
21:28 31.0 °F 24.6 °F 30.00 in SW 2.0 mph 3.0 mph 77% 0.00 in 0 W/m2
21:33 30.8 °F 24.7 °F 30.00 in South 2.0 mph 3.0 mph 78% 0.00 in 0 W/m2
21:39 30.7 °F 25.3 °F 30.00 in South 2.0 mph 2.0 mph 80% 0.00 in 0 W/m2
21:45 30.4 °F 25.3 °F 29.99 in South 1.0 mph 2.0 mph 81% 0.00 in 0 W/m2
21:51 30.2 °F 25.4 °F 29.98 in South 1.0 mph 1.0 mph 82% 0.00 in 0 W/m2
21:58 30.1 °F 25.6 °F 29.98 in Calm   1.0 mph 83% 0.00 in 0 W/m2
22:03 30.0 °F 25.8 °F 29.98 in Calm     84% 0.00 in 0 W/m2
22:09 29.9 °F 25.7 °F 29.98 in Calm     84% 0.00 in 0 W/m2
22:15 29.8 °F 25.8 °F 29.98 in Calm     85% 0.00 in 0 W/m2
22:21 29.8 °F 25.8 °F 29.98 in Calm     85% 0.00 in 0 W/m2
22:28 29.7 °F 26.0 °F 29.98 in Calm     86% 0.00 in 0 W/m2
22:33 29.6 °F 25.9 °F 29.97 in Calm     86% 0.00 in 0 W/m2
22:39 29.6 °F 25.9 °F 29.97 in Calm     86% 0.00 in 0 W/m2
22:45 29.6 °F 26.2 °F 29.97 in Calm     87% 0.00 in 0 W/m2
22:52 29.5 °F 26.1 °F 29.97 in Calm     87% 0.00 in 0 W/m2
22:58 29.6 °F 26.2 °F 29.97 in Calm     87% 0.00 in 0 W/m2
23:03 29.6 °F 26.2 °F 29.96 in Calm     87% 0.00 in 0 W/m2
23:09 29.5 °F 26.4 °F 29.96 in Calm     88% 0.00 in 0 W/m2
23:15 29.5 °F 26.4 °F 29.95 in Calm     88% 0.00 in 0 W/m2
23:21 29.4 °F 26.3 °F 29.95 in Calm     88% 0.00 in 0 W/m2
23:28 29.5 °F 26.4 °F 29.95 in Calm     88% 0.00 in 0 W/m2
23:33 29.4 °F 26.3 °F 29.95 in Calm     88% 0.00 in 0 W/m2
23:39 29.5 °F 26.4 °F 29.95 in Calm     88% 0.00 in 0 W/m2
23:45 29.5 °F 26.4 °F 29.95 in Calm     88% 0.00 in 0 W/m2
23:52 29.5 °F 26.7 °F 29.94 in Calm     89% 0.00 in 0 W/m2
23:58 29.5 °F 26.7 °F 29.94 in Calm     89% 0.00 in 0 W/m2
Country Meadow, Clay, NY, USA
Compliments of Weather Underground - 2 mb